Time;durP1;ratioP1;P1;durP2;ratioP2;P2;SDS_P1;SDS_P2;PMS_P1;PMS_P2;Temp;Humidity;BMP_temperature;BMP_pressure;BME280_temperature;BME280_humidity;BME280_pressure;Samples;Min_cycle;Max_cycle;Signal;HPM_P1;HPM_P2
2023/06/25 00:00:32;;;;;;;10.23;5.67;;;;;;;-143.84;94.11;44843.44;5070030;28;20439;-57
2023/06/25 00:03:00;;;;;;;13.40;6.17;;;;;;;-143.84;94.16;44793.91;5070304;28;20468;-56
2023/06/25 00:05:28;;;;;;;8.23;6.43;;;;;;;-143.84;94.52;44826.28;5070091;28;20497;-56
2023/06/25 00:07:55;;;;;;;6.73;6.13;;;;;;;-143.84;94.76;44812.97;5069313;28;20955;-57
2023/06/25 00:10:22;;;;;;;10.30;6.63;;;;;;;-143.84;94.83;44803.44;5070173;28;20437;-57
2023/06/25 00:12:49;;;;;;;11.20;6.93;;;;;;;-143.84;95.13;44776.78;5069806;28;20526;-57
2023/06/25 00:15:16;;;;;;;9.60;7.27;;;;;;;-143.84;95.27;44717.75;5069009;28;20446;-57
2023/06/25 00:17:48;;;;;;;14.17;7.00;;;;;;;-143.84;95.08;44740.59;5068808;28;20439;-57
2023/06/25 00:20:17;;;;;;;6.23;5.67;;;;;;;-143.84;95.11;44734.91;5068645;28;20529;-56
2023/06/25 00:22:44;;;;;;;12.50;6.10;;;;;;;-143.84;94.99;44691.09;5068752;28;21109;-56
2023/06/25 00:25:11;;;;;;;8.83;6.60;;;;;;;-143.84;95.08;44744.41;5069863;28;20881;-56
2023/06/25 00:27:38;;;;;;;9.10;7.20;;;;;;;-143.84;95.04;44710.16;5069459;28;20489;-56
2023/06/25 00:30:07;;;;;;;8.57;6.23;;;;;;;-143.84;95.38;44723.47;5069709;28;20443;-56
2023/06/25 00:32:35;;;;;;;10.17;6.07;;;;;;;-143.84;95.05;44763.47;5069706;28;20877;-57
2023/06/25 00:35:02;;;;;;;6.77;5.47;;;;;;;-143.84;95.15;44725.38;5068960;28;20439;-57
2023/06/25 00:37:36;;;;;;;10.93;6.60;;;;;;;-143.84;95.15;44731.09;5069525;28;20656;-57
2023/06/25 00:40:05;;;;;;;9.53;6.33;;;;;;;-143.84;94.90;44713.94;5069254;28;20948;-56
2023/06/25 00:42:42;;;;;;;8.77;5.70;;;;;;;-143.84;95.11;44708.25;5069259;28;20469;-57
2023/06/25 00:45:10;;;;;;;10.50;6.87;;;;;;;-143.84;94.92;44708.25;5069442;28;20433;-56
2023/06/25 00:47:38;;;;;;;11.03;6.13;;;;;;;-143.84;94.91;44713.94;5069338;28;20453;-57
2023/06/25 00:50:06;;;;;;;8.87;6.10;;;;;;;-143.84;95.11;44755.84;5069172;28;20437;-56
2023/06/25 00:52:35;;;;;;;10.07;5.57;;;;;;;-143.84;94.88;44715.84;5069640;28;21494;-56
2023/06/25 00:55:02;;;;;;;9.50;6.20;;;;;;;-143.84;94.82;44729.19;5069461;28;20935;-57
2023/06/25 00:57:29;;;;;;;8.10;5.87;;;;;;;-143.84;94.79;44780.59;5069347;28;20468;-57
2023/06/25 00:59:58;;;;;;;6.80;6.07;;;;;;;-143.84;94.97;44771.06;5069041;28;20445;-57
2023/06/25 01:02:32;;;;;;;7.57;5.90;;;;;;;-143.84;94.98;44733.00;5068930;28;20935;-56
2023/06/25 01:05:11;;;;;;;9.70;6.20;;;;;;;-143.84;94.56;44797.72;5069140;28;20455;-56
2023/06/25 01:07:44;;;;;;;6.73;6.13;;;;;;;-143.84;94.61;44761.56;5068748;28;20439;-56
2023/06/25 01:10:12;;;;;;;8.87;5.80;;;;;;;-143.84;94.29;44793.91;5069266;28;20506;-57
2023/06/25 01:12:39;;;;;;;11.73;6.40;;;;;;;-143.84;93.79;44864.38;5069157;28;20475;-56
2023/06/25 01:15:08;;;;;;;11.27;6.37;;;;;;;-143.84;93.33;44881.50;5069058;28;20441;-56
2023/06/25 01:17:36;;;;;;;7.53;5.10;;;;;;;-143.84;92.72;44919.59;5068823;28;20436;-57
2023/06/25 01:20:05;;;;;;;8.90;6.50;;;;;;;-143.84;91.43;44984.31;5069082;28;20440;-56
2023/06/25 01:22:34;;;;;;;5.80;5.30;;;;;;;-143.84;90.35;45010.97;5069080;28;20450;-56
2023/06/25 01:25:02;;;;;;;5.93;4.73;;;;;;;-143.84;88.82;45024.31;5068658;28;20810;-56
2023/06/25 01:27:29;;;;;;;7.67;5.40;;;;;;;-143.84;87.47;45068.13;5068817;28;20448;-56
2023/06/25 01:29:58;;;;;;;8.23;5.67;;;;;;;-143.84;86.48;45060.50;5068806;28;20437;-56
2023/06/25 01:32:25;;;;;;;9.03;6.10;;;;;;;-143.84;86.59;45043.34;5068544;28;20818;-56
2023/06/25 01:34:52;;;;;;;8.90;5.63;;;;;;;-143.84;86.51;45058.59;5068508;28;20441;-56
2023/06/25 01:37:19;;;;;;;13.03;5.70;;;;;;;-143.84;86.64;45073.81;5068538;28;20483;-56
2023/06/25 01:39:49;;;;;;;6.60;5.67;;;;;;;-143.84;85.65;45083.34;5068649;28;21032;-56
2023/06/25 01:42:17;;;;;;;10.10;6.47;;;;;;;-143.84;85.20;45043.34;5068979;28;20442;-56
2023/06/25 01:44:44;;;;;;;7.70;5.40;;;;;;;-143.84;85.65;45081.44;5068676;28;20437;-57
2023/06/25 01:47:11;;;;;;;10.30;5.67;;;;;;;-143.84;85.34;45081.44;5068591;28;20503;-56
2023/06/25 01:49:38;;;;;;;5.97;5.37;;;;;;;-143.84;85.26;45050.97;5068721;28;20890;-56
2023/06/25 01:52:07;;;;;;;7.90;5.50;;;;;;;-143.84;84.83;45070.00;5068417;28;20989;-56
2023/06/25 01:54:34;;;;;;;6.43;5.83;;;;;;;-143.84;84.65;45064.31;5068685;28;20438;-56
2023/06/25 01:57:03;;;;;;;11.20;5.20;;;;;;;-143.84;84.71;45045.25;5068544;28;20440;-56
2023/06/25 01:59:34;;;;;;;7.40;6.27;;;;;;;-143.84;84.37;45073.81;5068490;28;20440;-56
2023/06/25 02:02:01;;;;;;;6.13;5.50;;;;;;;-143.84;84.08;45104.28;5068676;28;20472;-56
2023/06/25 02:04:29;;;;;;;6.70;6.13;;;;;;;-143.84;84.06;45085.25;5068360;28;20442;-56
2023/06/25 02:06:56;;;;;;;6.33;5.73;;;;;;;-143.84;84.03;45071.91;5068344;28;20442;-56
2023/06/25 02:09:23;;;;;;;9.90;6.07;;;;;;;-143.84;83.99;45085.25;5068480;28;20959;-56
2023/06/25 02:11:50;;;;;;;11.50;5.70;;;;;;;-143.84;84.10;45108.09;5068235;28;20994;-56
2023/06/25 02:14:19;;;;;;;9.90;4.83;;;;;;;-143.84;84.22;45096.66;5068823;28;20436;-56
2023/06/25 02:16:46;;;;;;;8.50;5.10;;;;;;;-143.84;84.08;45094.78;5068517;28;20502;-56
2023/06/25 02:19:13;;;;;;;6.20;5.70;;;;;;;-143.84;83.89;45077.63;5070442;28;20437;-56
2023/06/25 02:21:40;;;;;;;6.63;5.70;;;;;;;-143.84;83.51;45098.56;5072212;28;20875;-56
2023/06/25 02:24:07;;;;;;;10.57;5.57;;;;;;;-143.84;83.87;45104.28;5071707;28;20476;-56
2023/06/25 02:26:34;;;;;;;7.03;5.23;;;;;;;-143.84;82.89;45056.69;5071956;28;20487;-56
2023/06/25 02:29:01;;;;;;;6.70;5.80;;;;;;;-143.84;82.81;45096.66;5072167;28;20502;-56
2023/06/25 02:31:30;;;;;;;7.20;5.50;;;;;;;-143.84;82.57;45092.88;5072163;28;20438;-56
2023/06/25 02:33:58;;;;;;;7.33;5.50;;;;;;;-143.84;82.69;45094.78;5071848;28;20506;-56
2023/06/25 02:36:25;;;;;;;8.33;5.30;;;;;;;-143.84;81.54;45110.00;5071974;28;20441;-56
2023/06/25 02:38:52;;;;;;;6.33;5.73;;;;;;;-143.84;81.70;45092.88;5071751;28;20786;-57
2023/06/25 02:41:19;;;;;;;7.80;5.27;;;;;;;-143.84;80.61;45070.00;5071762;28;20437;-56
2023/06/25 02:43:46;;;;;;;8.20;6.50;;;;;;;-143.84;79.65;45115.72;5055336;28;20464;-56
2023/06/25 02:46:13;;;;;;;9.50;5.97;;;;;;;-143.84;79.31;45096.66;5051727;28;20516;-56
2023/06/25 02:48:42;;;;;;;8.43;5.83;;;;;;;-143.84;79.51;45089.06;5051436;28;20446;-56
2023/06/25 02:51:10;;;;;;;6.27;5.30;;;;;;;-143.84;79.76;45106.19;5051533;28;20532;-56
2023/06/25 02:53:37;;;;;;;10.00;6.13;;;;;;;-143.84;79.92;45085.25;5051448;28;20481;-56
2023/06/25 02:56:04;;;;;;;9.30;6.13;;;;;;;-143.84;80.19;45085.25;5051657;28;20496;-56
2023/06/25 02:58:31;;;;;;;8.30;5.53;;;;;;;-143.84;79.70;45121.44;5051329;28;20451;-56
2023/06/25 03:00:59;;;;;;;6.83;5.47;;;;;;;-143.84;78.93;45094.78;5051369;28;20446;-56
2023/06/25 03:03:26;;;;;;;6.83;5.70;;;;;;;-143.84;77.72;45108.09;5051341;28;20522;-56
2023/06/25 03:05:54;;;;;;;5.33;4.93;;;;;;;-143.84;76.66;45113.81;5051319;28;20435;-56
2023/06/25 03:08:22;;;;;;;5.77;5.37;;;;;;;-143.84;75.26;45106.19;5051854;28;20443;-56
2023/06/25 03:10:49;;;;;;;6.10;5.50;;;;;;;-143.84;75.21;45108.09;5051511;28;20442;-56
2023/06/25 03:13:16;;;;;;;8.47;5.30;;;;;;;-143.84;74.38;45130.94;5051471;28;20539;-56
2023/06/25 03:15:43;;;;;;;7.60;5.30;;;;;;;-143.84;73.57;45102.38;5051155;28;20497;-56
2023/06/25 03:18:10;;;;;;;7.83;6.40;;;;;;;-143.84;73.49;45090.97;5051177;28;20434;-56
2023/06/25 03:20:37;;;;;;;8.43;4.77;;;;;;;-143.84;73.42;45096.66;5051172;28;20442;-56
2023/06/25 03:23:07;;;;;;;6.43;5.30;;;;;;;-143.84;72.05;45096.66;5069051;28;20988;-56
2023/06/25 03:25:34;;;;;;;8.90;5.33;;;;;;;-143.84;72.00;45098.56;5071171;28;20498;-56
2023/06/25 03:28:01;;;;;;;14.40;5.57;;;;;;;-143.84;71.70;45092.88;5070983;28;20438;-56
2023/06/25 03:30:28;;;;;;;7.60;5.77;;;;;;;-143.84;70.89;45094.78;5070239;28;20445;-56
2023/06/25 03:32:55;;;;;;;7.57;6.83;;;;;;;-143.84;70.85;45090.97;5066198;28;20528;-56
2023/06/25 03:35:22;;;;;;;9.27;6.70;;;;;;;-143.84;71.26;45083.34;5051066;28;20504;-56
2023/06/25 03:37:50;;;;;;;7.87;6.43;;;;;;;-143.84;65.73;45098.56;5050736;28;20450;-56
2023/06/25 03:40:19;;;;;;;10.17;5.60;;;;;;;-143.84;60.80;45094.78;5050940;28;20442;-56
2023/06/25 03:42:46;;;;;;;7.80;5.40;;;;;;;-143.84;55.24;45049.06;5050028;28;20441;-56
2023/06/25 03:45:15;;;;;;;6.23;4.93;;;;;;;-143.84;50.11;45037.66;5049729;28;20445;-56
2023/06/25 03:47:42;;;;;;;4.80;4.40;;;;;;;-143.84;50.19;45037.66;5049800;28;20446;-56
2023/06/25 03:50:10;;;;;;;6.13;4.80;;;;;;;-143.84;46.78;45014.78;5049734;28;20851;-57
2023/06/25 03:52:37;;;;;;;8.10;4.80;;;;;;;-143.84;46.44;45014.78;5049471;28;20474;-56
2023/06/25 03:55:05;;;;;;;5.20;4.63;;;;;;;-143.84;42.58;45010.97;5050158;28;21092;-56
2023/06/25 03:57:33;;;;;;;5.50;3.90;;;;;;;-143.84;40.60;44991.94;5058557;28;20453;-56
2023/06/25 04:00:00;;;;;;;6.67;4.80;;;;;;;-143.84;39.99;44984.31;5070406;28;20441;-56
2023/06/25 04:02:28;;;;;;;9.53;4.97;;;;;;;-143.84;39.60;44993.84;5070044;28;20441;-56
2023/06/25 04:04:55;;;;;;;9.97;5.17;;;;;;;-143.84;39.69;45001.47;5067046;28;20441;-56
2023/06/25 04:07:22;;;;;;;6.97;5.00;;;;;;;-143.84;39.63;44980.53;5061203;28;20517;-56
2023/06/25 04:09:49;;;;;;;7.37;4.63;;;;;;;-143.84;40.29;44993.84;5069936;28;20445;-56
2023/06/25 04:12:16;;;;;;;22.13;8.27;;;;;;;-143.84;41.35;44995.75;5069968;28;20484;-56
2023/06/25 04:14:44;;;;;;;7.90;4.70;;;;;;;-143.84;41.40;44984.31;5066789;28;20934;-56
2023/06/25 04:17:11;;;;;;;7.00;4.73;;;;;;;-143.84;39.72;44978.63;5063457;28;20451;-56
2023/06/25 04:19:39;;;;;;;6.13;4.40;;;;;;;-143.84;38.57;44963.38;5067474;28;20955;-56
2023/06/25 04:22:06;;;;;;;5.03;4.50;;;;;;;-143.84;38.16;44959.56;5069648;28;20434;-56
2023/06/25 04:24:34;;;;;;;5.27;4.17;;;;;;;-143.84;37.49;44972.91;5069584;28;20480;-56
2023/06/25 04:27:01;;;;;;;7.13;4.50;;;;;;;-143.84;37.67;44969.09;5056100;28;20449;-56
2023/06/25 04:29:28;;;;;;;8.17;3.87;;;;;;;-143.84;37.01;44984.31;5060364;28;20446;-56
2023/06/25 04:31:56;;;;;;;5.60;4.70;;;;;;;-143.84;36.59;44957.66;5061097;28;20445;-56
2023/06/25 04:34:23;;;;;;;11.03;4.30;;;;;;;-143.84;36.08;44969.09;5069531;28;20441;-56
2023/06/25 04:36:50;;;;;;;11.57;5.70;;;;;;;-143.84;35.92;44965.28;5069359;28;20441;-56
2023/06/25 04:39:18;;;;;;;4.90;4.50;;;;;;;-143.84;36.27;44972.91;5069271;28;20450;-56
2023/06/25 04:41:45;;;;;;;7.63;4.80;;;;;;;-143.84;35.85;44957.66;5055264;28;20480;-56
2023/06/25 04:44:12;;;;;;;4.70;4.40;;;;;;;-143.84;35.87;44971.00;5052388;28;20994;-56
2023/06/25 04:46:39;;;;;;;7.70;4.37;;;;;;;-143.84;36.28;44980.53;5059350;28;20441;-56
2023/06/25 04:49:07;;;;;;;4.40;4.00;;;;;;;-143.84;36.43;44982.41;5054705;28;20446;-56
2023/06/25 04:51:34;;;;;;;7.17;4.13;;;;;;;-143.84;37.00;44961.47;5049294;28;20990;-56
2023/06/25 04:54:02;;;;;;;7.00;4.50;;;;;;;-143.84;37.06;44978.63;5049266;28;20899;-56
2023/06/25 04:56:29;;;;;;;4.40;4.10;;;;;;;-143.84;37.66;44946.25;5049081;28;20445;-56
2023/06/25 04:58:56;;;;;;;7.90;5.17;;;;;;;-143.84;39.26;44978.63;5051649;28;20518;-56
2023/06/25 05:01:24;;;;;;;6.70;5.10;;;;;;;-143.84;39.75;44961.47;5069196;28;20920;-56
2023/06/25 05:03:51;;;;;;;11.00;4.97;;;;;;;-143.84;40.42;44942.44;5069402;28;21316;-56
2023/06/25 05:06:19;;;;;;;6.30;4.77;;;;;;;-143.84;40.19;44972.91;5069382;28;21209;-56
2023/06/25 05:08:46;;;;;;;7.20;4.97;;;;;;;-143.84;40.90;44972.91;5063257;28;20445;-56
2023/06/25 05:11:13;;;;;;;7.20;4.47;;;;;;;-143.84;40.77;45007.19;5054472;28;20452;-55
2023/06/25 05:13:41;;;;;;;8.83;5.30;;;;;;;-143.84;41.07;44990.03;5048611;28;20477;-55
2023/06/25 05:16:08;;;;;;;12.07;4.80;;;;;;;-143.84;40.05;44991.94;5049015;28;20520;-56
2023/06/25 05:18:35;;;;;;;6.77;3.97;;;;;;;-143.84;39.30;45003.38;5048824;28;20439;-56
2023/06/25 05:21:02;;;;;;;5.83;4.47;;;;;;;-143.84;39.95;44978.63;5048925;28;20449;-56
2023/06/25 05:23:39;;;;;;;7.20;4.27;;;;;;;-143.84;40.97;44999.56;5048758;28;20555;-56
2023/06/25 05:26:06;;;;;;;19.10;4.47;;;;;;;-143.84;40.42;45014.78;5048820;28;20521;-56
2023/06/25 05:28:33;;;;;;;4.73;3.97;;;;;;;-143.84;40.97;44999.56;5048639;28;20450;-56
2023/06/25 05:31:00;;;;;;;7.70;4.30;;;;;;;-143.84;40.05;44976.72;5048838;28;20449;-56
2023/06/25 05:33:27;;;;;;;16.50;4.20;;;;;;;-143.84;40.41;44980.53;5048772;28;20552;-56
2023/06/25 05:35:54;;;;;;;5.87;4.17;;;;;;;-143.84;40.09;44999.56;5048919;28;20942;-56
2023/06/25 05:38:21;;;;;;;8.73;4.77;;;;;;;-143.84;39.12;45030.03;5048869;28;20447;-56
2023/06/25 05:40:50;;;;;;;6.30;4.20;;;;;;;-143.84;38.96;44959.56;5064613;28;20442;-56
2023/06/25 05:43:17;;;;;;;19.53;4.30;;;;;;;-143.84;38.75;44995.75;5068661;28;20445;-56
2023/06/25 05:45:44;;;;;;;12.03;4.20;;;;;;;-143.84;38.36;45018.59;5068795;28;20442;-56
2023/06/25 05:48:11;;;;;;;6.80;4.50;;;;;;;-143.84;37.63;44982.41;5068679;28;20445;-56
2023/06/25 05:50:38;;;;;;;5.47;4.50;;;;;;;-143.84;37.64;44978.63;5068427;28;20864;-56
2023/06/25 05:53:05;;;;;;;5.93;4.40;;;;;;;-143.84;38.30;44993.84;5070830;28;20473;-56
2023/06/25 05:55:32;;;;;;;4.77;4.37;;;;;;;-143.84;37.41;44971.00;5068483;28;20472;-56
2023/06/25 05:58:01;;;;;;;15.10;4.43;;;;;;;-143.84;37.31;44978.63;5062060;28;20496;-56
2023/06/25 06:00:28;;;;;;;16.30;4.27;;;;;;;-143.84;37.46;44961.47;5052977;28;20441;-56
2023/06/25 06:02:55;;;;;;;4.90;4.50;;;;;;;-143.84;37.23;44950.06;5052469;28;20477;-56
2023/06/25 06:05:22;;;;;;;6.23;4.47;;;;;;;-143.84;36.27;44944.34;5052400;28;20495;-56
2023/06/25 06:07:49;;;;;;;4.97;4.50;;;;;;;-143.84;34.87;44946.25;5054936;28;20441;-56
2023/06/25 06:10:17;;;;;;;10.00;3.90;;;;;;;-143.84;33.52;44948.16;5052573;28;20442;-56
2023/06/25 06:12:44;;;;;;;5.40;4.43;;;;;;;-143.84;33.78;44936.72;5051988;28;20447;-56
2023/06/25 06:15:13;;;;;;;3.80;3.47;;;;;;;-143.84;32.94;44900.53;5052282;28;20446;-56
2023/06/25 06:17:40;;;;;;;10.53;4.43;;;;;;;-143.84;32.65;44932.91;5052010;28;20856;-56
2023/06/25 06:20:08;;;;;;;5.10;3.60;;;;;;;-143.84;32.57;44902.44;5052425;28;20445;-56
2023/06/25 06:22:35;;;;;;;4.47;4.07;;;;;;;-143.84;32.69;44910.06;5052127;28;20469;-56
2023/06/25 06:25:02;;;;;;;10.40;4.90;;;;;;;-143.84;32.29;44889.13;5085361;28;20484;-56
2023/06/25 06:27:29;;;;;;;4.07;3.70;;;;;;;-143.84;33.30;44866.28;5092387;28;20436;-56
2023/06/25 06:29:56;;;;;;;5.73;4.33;;;;;;;-143.84;32.82;44847.22;5091749;28;20444;-56
2023/06/25 06:32:25;;;;;;;9.87;5.10;;;;;;;-143.84;32.43;44862.47;5092206;28;21134;-56
2023/06/25 06:34:52;;;;;;;5.70;4.83;;;;;;;-143.84;33.12;44873.88;5092062;28;20529;-56
2023/06/25 06:37:19;;;;;;;10.20;5.23;;;;;;;-143.84;33.67;44862.47;5092064;28;21074;-56
2023/06/25 06:39:46;;;;;;;7.67;4.43;;;;;;;-143.84;33.40;44851.03;5092251;28;20855;-56
2023/06/25 06:42:13;;;;;;;5.17;4.77;;;;;;;-143.84;33.42;44854.84;5092093;28;20445;-56
2023/06/25 06:44:40;;;;;;;7.00;4.77;;;;;;;-143.84;32.84;44873.88;5092196;28;20436;-57
2023/06/25 06:47:07;;;;;;;6.07;4.67;;;;;;;-143.84;32.80;44854.84;5092052;28;20432;-56
2023/06/25 06:49:36;;;;;;;6.50;4.80;;;;;;;-143.84;32.27;44839.63;5092109;28;20940;-56
2023/06/25 06:52:03;;;;;;;7.97;5.37;;;;;;;-143.84;32.83;44843.44;5091483;28;20513;-56
2023/06/25 06:54:30;;;;;;;17.87;5.80;;;;;;;-143.84;32.81;44839.63;5085567;28;20494;-56
2023/06/25 06:56:57;;;;;;;16.70;11.97;;;;;;;-143.84;35.09;44854.84;5051382;28;20875;-56
2023/06/25 06:59:24;;;;;;;8.90;5.90;;;;;;;-143.84;34.87;44852.94;5051642;28;20438;-56
2023/06/25 07:01:52;;;;;;;11.60;5.53;;;;;;;-143.84;35.23;44828.19;5051861;28;20443;-56
2023/06/25 07:04:19;;;;;;;12.27;5.30;;;;;;;-143.84;33.17;44839.63;5050250;28;20445;-56
2023/06/25 07:06:47;;;;;;;8.50;4.90;;;;;;;-143.84;32.35;44841.53;5051365;28;20947;-56
2023/06/25 07:09:14;;;;;;;23.00;11.83;;;;;;;-143.84;34.76;44820.56;5051334;28;20489;-56
2023/06/25 07:11:41;;;;;;;19.73;11.53;;;;;;;-143.84;35.28;44845.31;5051316;28;20446;-56
2023/06/25 07:14:09;;;;;;;17.57;9.37;;;;;;;-143.84;35.25;44864.38;5051335;28;20489;-56
2023/06/25 07:16:36;;;;;;;26.43;9.67;;;;;;;-143.84;35.18;44851.03;5051425;28;20435;-56
2023/06/25 07:19:03;;;;;;;30.57;11.63;;;;;;;-143.84;35.87;44832.00;5051063;28;20442;-56
2023/06/25 07:21:30;;;;;;;21.60;10.83;;;;;;;-143.84;36.50;44851.03;5051008;28;20476;-56
2023/06/25 07:23:59;;;;;;;17.27;11.40;;;;;;;-143.84;36.41;44858.66;5050609;28;20954;-56
2023/06/25 07:26:27;;;;;;;16.80;11.93;;;;;;;-143.84;36.34;44856.75;5050794;28;21009;-56
2023/06/25 07:28:54;;;;;;;22.33;12.27;;;;;;;-143.84;35.99;44854.84;5052299;28;20460;-56
2023/06/25 07:31:21;;;;;;;16.13;12.93;;;;;;;-143.84;36.40;44885.31;5070762;28;20434;-56
2023/06/25 07:33:48;;;;;;;21.90;13.50;;;;;;;-143.84;37.27;44852.94;5070953;28;20477;-56
2023/06/25 07:36:15;;;;;;;17.67;14.07;;;;;;;-143.84;37.38;44856.75;5070759;28;20441;-56
2023/06/25 07:38:43;;;;;;;17.70;13.53;;;;;;;-143.84;37.97;44900.53;5070569;28;21044;-56
2023/06/25 07:41:11;;;;;;;14.97;11.93;;;;;;;-143.84;38.56;44904.34;5067268;28;20807;-56
2023/06/25 07:43:38;;;;;;;21.10;14.07;;;;;;;-143.84;38.39;44900.53;5050830;28;20446;-56
2023/06/25 07:46:05;;;;;;;17.50;12.07;;;;;;;-143.84;39.38;44915.78;5050427;28;20438;-56
2023/06/25 07:48:33;;;;;;;19.87;12.93;;;;;;;-143.84;39.43;44923.41;5050617;28;21001;-56
2023/06/25 07:51:00;;;;;;;19.03;12.37;;;;;;;-143.84;39.34;44911.97;5053481;28;20974;-56
2023/06/25 07:53:27;;;;;;;21.97;11.97;;;;;;;-143.84;41.22;44917.69;5070022;28;20485;-56
2023/06/25 07:55:54;;;;;;;17.90;11.27;;;;;;;-143.84;40.29;44904.34;5059048;28;20936;-56
2023/06/25 07:58:22;;;;;;;23.33;10.57;;;;;;;-143.84;40.66;44902.44;5050152;28;20450;-56
2023/06/25 08:00:49;;;;;;;10.33;9.33;;;;;;;-143.84;40.64;44921.50;5050105;28;20447;-56
2023/06/25 08:03:17;;;;;;;18.40;9.10;;;;;;;-143.84;40.51;44898.66;5050218;28;20445;-56
2023/06/25 08:05:44;;;;;;;13.90;9.23;;;;;;;-143.84;40.12;44923.41;5069513;28;20437;-56
2023/06/25 08:08:11;;;;;;;12.17;9.47;;;;;;;-143.84;40.37;44925.31;5069676;28;20816;-58
2023/06/25 08:10:38;;;;;;;12.50;8.90;;;;;;;-143.84;40.38;44938.63;5069700;28;20437;-58
2023/06/25 08:13:05;;;;;;;11.37;8.30;;;;;;;-143.84;39.99;44896.75;5069859;28;20445;-58
2023/06/25 08:15:34;;;;;;;11.43;9.27;;;;;;;-143.84;40.05;44915.78;5069788;28;20441;-57
2023/06/25 08:18:01;;;;;;;15.30;9.17;;;;;;;-143.84;39.54;44911.97;5069673;28;20491;-58
2023/06/25 08:20:30;;;;;;;11.20;7.77;;;;;;;-143.84;39.68;44908.16;5069177;28;20939;-57
2023/06/25 08:22:57;;;;;;;12.63;8.97;;;;;;;-143.84;40.65;44932.91;5069454;28;20482;-57
2023/06/25 08:25:26;;;;;;;25.60;9.47;;;;;;;-143.84;40.46;44894.84;5069714;28;20851;-57
2023/06/25 08:27:53;;;;;;;17.13;8.23;;;;;;;-143.84;39.63;44891.03;5069534;28;20826;-58
2023/06/25 08:30:21;;;;;;;12.93;8.93;;;;;;;-143.84;39.06;44917.69;5069936;28;20516;-58
2023/06/25 08:32:49;;;;;;;14.30;7.20;;;;;;;-143.84;39.40;44902.44;5069998;28;20498;-57
2023/06/25 08:35:16;;;;;;;8.97;7.43;;;;;;;-143.84;39.80;44889.13;5069902;28;20485;-57
2023/06/25 08:37:43;;;;;;;17.67;9.20;;;;;;;-143.84;38.75;44892.94;5066236;28;20430;-57
2023/06/25 08:40:12;;;;;;;13.70;7.73;;;;;;;-143.84;39.49;44911.97;5069864;28;20495;-57
2023/06/25 08:42:42;;;;;;;20.90;10.87;;;;;;;-143.84;38.95;44942.44;5069557;28;20441;-57
2023/06/25 08:45:11;;;;;;;10.80;8.43;;;;;;;-143.84;39.88;44906.25;5069707;28;20516;-58
2023/06/25 08:47:40;;;;;;;12.97;7.60;;;;;;;-143.84;41.10;44904.34;5069308;28;20434;-57
2023/06/25 08:50:09;;;;;;;11.13;6.80;;;;;;;-143.84;40.09;44892.94;5063972;28;20449;-57
2023/06/25 08:52:38;;;;;;;12.83;6.53;;;;;;;-143.84;39.21;44915.78;5057858;28;20576;-57
2023/06/25 08:55:09;;;;;;;10.53;7.30;;;;;;;-143.84;39.67;44925.31;5055984;28;20482;-58
2023/06/25 08:57:36;;;;;;;8.00;5.97;;;;;;;-143.84;39.43;44887.22;5061739;28;20899;-57
2023/06/25 09:00:04;;;;;;;6.10;5.50;;;;;;;-143.84;40.24;44915.78;5069265;28;20524;-58
2023/06/25 09:02:31;;;;;;;9.13;6.30;;;;;;;-143.84;40.74;44900.53;5069331;28;20452;-57
2023/06/25 09:05:05;;;;;;;10.40;6.53;;;;;;;-143.84;41.18;44887.22;5069044;28;20499;-58
2023/06/25 09:07:34;;;;;;;12.70;6.10;;;;;;;-143.84;41.96;44902.44;5068968;28;20444;-58
2023/06/25 09:10:01;;;;;;;12.90;6.30;;;;;;;-143.84;41.63;44942.44;5068932;28;20449;-57
2023/06/25 09:12:29;;;;;;;10.30;5.97;;;;;;;-143.84;41.82;44908.16;5069206;28;21075;-58
2023/06/25 09:14:57;;;;;;;8.60;6.40;;;;;;;-143.84;41.48;44894.84;5068942;28;20983;-58
2023/06/25 09:17:25;;;;;;;10.63;6.10;;;;;;;-143.84;40.91;44908.16;5068792;28;20444;-58
2023/06/25 09:19:52;;;;;;;8.70;5.53;;;;;;;-143.84;42.39;44940.53;5070045;28;20437;-57
2023/06/25 09:22:19;;;;;;;12.77;6.10;;;;;;;-143.84;42.30;44911.97;5088977;28;20458;-57
2023/06/25 09:24:49;;;;;;;8.17;5.77;;;;;;;-143.84;41.59;44910.06;5089033;28;20480;-57
2023/06/25 09:27:19;;;;;;;8.70;6.43;;;;;;;-143.84;41.02;44904.34;5088430;28;20452;-57
2023/06/25 09:29:47;;;;;;;12.00;6.03;;;;;;;-143.84;41.93;44915.78;5089496;28;20867;-57
2023/06/25 09:32:14;;;;;;;10.07;7.37;;;;;;;-143.84;42.16;44934.81;5088141;28;20847;-58
2023/06/25 09:34:42;;;;;;;12.77;6.70;;;;;;;-143.84;41.80;44910.06;5087915;28;20504;-57
2023/06/25 09:37:10;;;;;;;11.27;6.67;;;;;;;-143.84;42.31;44931.00;5088135;28;20436;-55
2023/06/25 09:39:37;;;;;;;6.53;6.00;;;;;;;-143.84;41.89;44946.25;5088212;28;20443;-55
2023/06/25 09:42:07;;;;;;;7.10;6.50;;;;;;;-143.84;42.02;44934.81;5087897;28;20950;-54
2023/06/25 09:44:37;;;;;;;7.73;6.93;;;;;;;-143.84;41.76;44942.44;5088420;28;20448;-55
2023/06/25 09:47:07;;;;;;;8.40;7.00;;;;;;;-143.84;43.48;44957.66;5088686;28;20509;-54
2023/06/25 09:49:34;;;;;;;6.97;6.37;;;;;;;-143.84;41.98;44915.78;5088735;28;20433;-55
2023/06/25 09:52:08;;;;;;;7.20;6.60;;;;;;;-143.84;41.99;44927.19;5088796;28;20510;-55
2023/06/25 09:54:39;;;;;;;7.83;6.63;;;;;;;-143.84;40.86;44923.41;5089038;28;20541;-57
2023/06/25 09:57:10;;;;;;;12.67;6.70;;;;;;;-143.84;40.82;44931.00;5089033;28;20441;-57
2023/06/25 09:59:37;;;;;;;12.50;7.20;;;;;;;-143.84;42.47;44934.81;5089222;28;20440;-58
2023/06/25 10:02:07;;;;;;;10.40;7.40;;;;;;;-143.84;41.62;44921.50;5089147;28;20432;-57
2023/06/25 10:04:35;;;;;;;9.90;6.57;;;;;;;-143.84;40.98;44913.88;5088676;28;20441;-58
2023/06/25 10:07:04;;;;;;;6.03;5.50;;;;;;;-143.84;39.40;44921.50;5088809;28;20464;-58
2023/06/25 10:09:31;;;;;;;6.90;6.17;;;;;;;-143.84;38.12;44950.06;5088721;28;20482;-55
2023/06/25 10:11:58;;;;;;;9.47;6.50;;;;;;;-143.84;39.35;44986.22;5088786;28;20429;-55
2023/06/25 10:14:37;;;;;;;9.60;6.40;;;;;;;-143.84;39.04;44913.88;5088569;28;20503;-55
2023/06/25 10:17:06;;;;;;;6.43;5.83;;;;;;;-143.84;38.55;44942.44;5088628;28;20451;-55
2023/06/25 10:19:33;;;;;;;8.90;6.90;;;;;;;-143.84;38.48;44892.94;5088811;28;20505;-57
2023/06/25 10:22:04;;;;;;;9.30;6.30;;;;;;;-143.84;38.68;44906.25;5088789;28;20441;-58
2023/06/25 10:24:41;;;;;;;7.37;6.53;;;;;;;-143.84;38.53;44932.91;5088378;28;20888;-57
2023/06/25 10:27:08;;;;;;;14.87;7.83;;;;;;;-143.84;38.32;44927.19;5088637;28;20445;-58
2023/06/25 10:29:43;;;;;;;7.30;6.07;;;;;;;-143.84;38.88;44932.91;5088238;28;20456;-58
2023/06/25 10:32:12;;;;;;;11.03;5.90;;;;;;;-143.84;38.43;44919.59;5088524;28;20439;-58
2023/06/25 10:34:40;;;;;;;8.73;5.60;;;;;;;-143.84;39.27;44919.59;5088620;28;20472;-58
2023/06/25 10:37:07;;;;;;;9.40;6.50;;;;;;;-143.84;39.89;44936.72;5088597;28;20937;-58
2023/06/25 10:39:38;;;;;;;10.63;6.70;;;;;;;-143.84;40.71;44919.59;5089595;28;20436;-58
2023/06/25 10:42:07;;;;;;;18.33;6.60;;;;;;;-143.84;41.54;44942.44;5092146;28;20451;-58
2023/06/25 10:44:34;;;;;;;12.53;6.57;;;;;;;-143.84;41.83;44915.78;5092068;28;20474;-58
2023/06/25 10:47:07;;;;;;;10.57;6.73;;;;;;;-143.84;42.67;44946.25;5091695;28;21018;-57
2023/06/25 10:49:35;;;;;;;8.33;6.60;;;;;;;-143.84;41.38;44932.91;5091982;28;20440;-57
2023/06/25 10:52:03;;;;;;;8.07;7.27;;;;;;;-143.84;44.33;44932.91;5092283;28;20453;-57
2023/06/25 10:54:32;;;;;;;8.40;6.70;;;;;;;-143.84;45.33;44936.72;5091754;28;20483;-57
2023/06/25 10:57:07;;;;;;;13.43;6.90;;;;;;;-143.84;48.62;44955.75;5091901;28;20432;-57
2023/06/25 10:59:34;;;;;;;7.30;6.60;;;;;;;-143.84;46.97;44957.66;5091960;28;20432;-57
2023/06/25 11:02:14;;;;;;;9.40;7.30;;;;;;;-143.84;48.31;44963.38;5091373;28;20444;-57
2023/06/25 11:04:41;;;;;;;7.50;6.80;;;;;;;-143.84;48.37;44967.19;5091672;28;20446;-57
2023/06/25 11:07:09;;;;;;;9.70;6.47;;;;;;;-143.84;50.99;44934.81;5091867;28;20494;-58
2023/06/25 11:09:37;;;;;;;8.33;6.87;;;;;;;-143.84;50.92;44969.09;5091940;28;20458;-58
2023/06/25 11:12:07;;;;;;;10.63;7.10;;;;;;;-143.84;49.00;44965.28;5091701;28;20450;-58
2023/06/25 11:14:34;;;;;;;9.83;6.57;;;;;;;-143.84;48.79;44969.09;5091600;28;20496;-58
2023/06/25 11:17:01;;;;;;;11.80;7.43;;;;;;;-143.84;49.79;44963.38;5091136;28;20439;-57